Terminal Aerodrome Forecast
Issued by NWS Duluth, MN

Home | Current Version | Previous Version | Text Only | Print | Product List | Glossary On
Versions: 1 2 3 4 5 6 7 8 9 10 11 12 13 14 15 16 17 18 19 20 21 22 23 24 25 26 27 28 29 30 31 32 33 34
000
FTUS43 KDLH 110538
TAFDLH
TAF
KDLH 110538Z 1106/1206 18004KT P6SM SCT070 BKN120
     FM110800 VRB03KT 1 1/2SM -SN OVC020
     FM111200 00000KT 1 1/2SM -SN OVC008
     FM111400 VRB03KT P6SM VCSH OVC015
     FM111600 34007KT P6SM BKN045
     FM111800 34012G20KT P6SM BKN070=

USA.gov is the U.S. government's official web portal to all federal, state and local government web resources and services.